Latest Weather Observations for Gosford

IDN60801

Issued at 6:02 pm EST Friday 29 April 2016 (issued every 30 minutes, with the page automatically refreshed every 10 minutes)

About weather observations | Map of weather stations | Latest weather observations for NSW | Other Formats
Station Details ID: 061425 Name: GOSFORD AWS Lat: -33.44 Lon: 151.36 Height: 7.0 m
Data from the previous 72 hours. | See also: Recent months at Gosford
Date/Time
EST
Temp
°C
App
Temp
°C
Dew
Point
Rel
Hum
%
Delta-T
°C
Wind Press
QNH
hPa
Press
MSL
hPa
Rain
since 9 am
mm
Dir
 
Spd
km/h
Gust
km/h
Spd
kts
Gust
kts
29/06:00pm 20.7 23.5 17.9 84 1.7 CALM 0 2 0 1 - - 0.0
29/05:30pm 20.7 22.7 17.9 84 1.7 NE 4 6 2 3 - - 0.0
29/05:00pm 21.5 24.0 18.1 81 2.1 NE 2 6 1 3 - - 0.0
29/04:30pm 21.9 23.6 18.1 79 2.4 ENE 6 7 3 4 - - 0.0
29/04:00pm 22.2 24.0 18.4 79 2.4 ENE 6 7 3 4 - - 0.0
29/03:30pm 23.0 24.5 18.1 74 3.1 ENE 7 9 4 5 - - 0.0
29/03:00pm 23.8 25.5 18.4 72 3.4 ENE 7 11 4 6 - - 0.0
29/02:30pm 25.0 27.4 18.0 65 4.4 NE 2 6 1 3 - - 0.0
29/02:00pm 24.6 26.5 18.5 69 3.9 E 6 7 3 4 - - 0.0
29/01:30pm 24.6 27.2 18.5 69 3.9 NE 2 9 1 5 - - 0.0
29/01:00pm 23.9 26.2 18.5 72 3.4 ENE 4 6 2 3 - - 0.0
29/12:30pm 23.7 25.2 16.7 65 4.3 NE 4 7 2 4 - - 0.0
29/12:00pm 24.0 25.4 16.5 63 4.6 ENE 4 7 2 4 - - 0.0
29/11:30am 24.1 25.2 16.6 63 4.6 N 6 9 3 5 - - 0.0
29/11:00am 24.5 26.0 16.7 61 4.8 N 4 9 2 5 - - 0.0
29/10:30am 23.1 23.8 15.7 63 4.5 NE 6 9 3 5 - - 0.0
29/10:00am 22.0 24.6 17.6 76 2.7 CALM 0 2 0 1 - - 0.0
29/09:30am 20.9 23.3 16.9 78 2.4 CALM 0 2 0 1 - - 0.0
29/09:00am 19.3 21.5 16.5 84 1.7 CALM 0 0 0 0 - - 0.0
29/08:30am 17.8 20.0 16.5 92 0.8 CALM 0 0 0 0 - - 0.0
29/08:00am 16.4 18.4 15.9 97 0.3 CALM 0 0 0 0 - - 0.0
29/07:30am 14.5 15.8 14.2 98 0.2 CALM 0 0 0 0 - - 0.0
29/07:00am 13.7 14.8 13.4 98 0.2 CALM 0 0 0 0 - - 0.0
29/06:30am 13.5 14.5 13.2 98 0.2 CALM 0 0 0 0 - - 0.0
29/06:00am 13.7 14.8 13.4 98 0.2 CALM 0 0 0 0 - - 0.0
29/05:30am 13.8 14.9 13.5 98 0.2 CALM 0 0 0 0 - - 0.0
29/05:00am 14.0 15.2 13.7 98 0.2 CALM 0 0 0 0 - - 0.0
29/04:30am 13.5 14.4 13.0 97 0.3 CALM 0 0 0 0 - - 0.0
29/04:00am 14.3 15.6 14.0 98 0.2 CALM 0 0 0 0 - - 0.0
29/03:30am 13.8 14.8 13.3 97 0.3 CALM 0 0 0 0 - - 0.0
29/03:00am 14.4 15.6 13.9 97 0.3 CALM 0 0 0 0 - - 0.0
29/02:30am 14.9 16.3 14.4 97 0.3 CALM 0 2 0 1 - - 0.0
29/02:00am 15.0 16.4 14.4 96 0.3 CALM 0 0 0 0 - - 0.0
29/01:30am 15.2 16.3 14.6 96 0.3 NE 2 2 1 1 - - 0.0
29/01:00am 16.0 17.8 15.4 96 0.3 CALM 0 4 0 2 - - 0.0
29/12:30am 16.3 18.0 15.3 94 0.6 CALM 0 0 0 0 - - 0.0
29/12:00am 17.1 19.1 16.1 94 0.6 CALM 0 0 0 0 - - 0.0
 
Date/Time
EST
Temp
°C
App
Temp
°C
Dew
Point
Rel
Hum
%
Delta-T
°C
Wind Press
QNH
hPa
Press
MSL
hPa
Rain
since 9 am
mm
Dir
 
Spd
km/h
Gust
km/h
Spd
kts
Gust
kts
28/11:30pm 17.7 19.8 16.2 91 0.9 CALM 0 0 0 0 - - 0.0
28/11:00pm 18.7 20.7 17.0 90 1.0 SW 2 4 1 2 - - 0.0
28/10:30pm 18.9 20.1 16.9 88 1.2 NE 6 9 3 5 - - 0.0
28/10:00pm 18.3 19.9 17.0 92 0.8 NE 4 7 2 4 - - 0.0
28/09:30pm 18.4 20.3 17.6 95 0.5 NNE 4 7 2 4 - - 0.0
28/09:00pm 17.8 19.4 17.0 95 0.5 ENE 4 6 2 3 - - 0.0
28/08:30pm 17.5 19.7 16.5 94 0.6 CALM 0 0 0 0 - - 0.0
28/08:00pm 17.9 19.5 16.9 94 0.6 NE 4 4 2 2 - - 0.0
28/07:30pm 18.0 20.2 16.5 91 0.9 CALM 0 0 0 0 - - 0.0
28/07:00pm 18.3 20.3 17.0 92 0.8 ESE 2 2 1 1 - - 0.0
28/06:30pm 18.6 20.8 16.6 88 1.2 CALM 0 0 0 0 - - 0.0
28/06:00pm 19.0 21.2 16.6 86 1.4 CALM 0 0 0 0 - - 0.0
28/05:30pm 20.0 22.4 17.0 83 1.8 CALM 0 2 0 1 - - 0.0
28/05:00pm 21.3 22.7 17.3 78 2.5 ENE 6 9 3 5 - - 0.0
28/04:30pm 22.2 23.7 17.6 75 2.8 ENE 6 9 3 5 - - 0.0
28/04:00pm 23.3 24.3 16.8 67 4.0 ENE 7 13 4 7 - - 0.0
28/03:30pm 24.3 25.1 17.3 65 4.3 NE 9 13 5 7 - - 0.0
28/03:00pm 24.8 24.8 17.3 63 4.7 ENE 13 17 7 9 - - 0.0
28/02:30pm 25.3 26.2 17.5 62 4.9 ENE 9 15 5 8 - - 0.0
28/02:00pm 25.8 26.6 16.4 56 5.8 NE 7 11 4 6 - - 0.0
28/01:30pm 25.8 27.1 17.2 59 5.4 NE 6 11 3 6 - - 0.0
28/01:00pm 25.1 27.2 17.1 61 5.0 ENE 2 6 1 3 - - 0.0
28/12:30pm 23.8 26.2 18.0 70 3.6 ENE 2 7 1 4 - - 0.0
28/12:00pm 22.0 24.1 18.0 78 2.5 SSE 4 6 2 3 - - 0.0
28/11:30am 20.5 21.7 16.9 80 2.2 S 6 9 3 5 - - 0.0
28/11:00am 20.9 22.3 17.3 80 2.2 WSW 6 9 3 5 - - 0.0
28/10:30am 19.8 21.0 16.8 83 1.8 SSW 6 7 3 4 - - 0.0
28/10:00am 19.2 20.8 17.0 87 1.3 S 4 6 2 3 - - 0.0
28/09:30am 18.7 21.3 17.5 93 0.7 CALM 0 2 0 1 - - 0.0
28/09:00am 17.1 19.3 16.5 96 0.4 CALM 0 0 0 0 - - 0.0
28/08:30am 16.2 18.1 15.7 97 0.3 CALM 0 0 0 0 - - 0.0
28/08:00am 15.9 17.8 15.7 99 0.1 CALM 0 0 0 0 - - 0.0
28/07:30am 13.9 15.0 13.6 98 0.2 CALM 0 0 0 0 - - 0.0
28/07:00am 13.6 14.7 13.4 99 0.1 CALM 0 0 0 0 - - 0.0
28/06:30am 13.1 14.0 12.8 98 0.2 CALM 0 0 0 0 - - 0.0
28/06:00am 12.8 13.6 12.5 98 0.2 CALM 0 0 0 0 - - 0.0
28/05:30am 12.9 13.7 12.6 98 0.2 CALM 0 0 0 0 - - 0.0
28/05:00am 13.2 14.1 12.9 98 0.2 CALM 0 0 0 0 - - 0.0
28/04:30am 13.4 14.4 13.1 98 0.2 CALM 0 0 0 0 - - 0.0
28/04:00am 13.5 14.5 13.2 98 0.2 CALM 0 0 0 0 - - 0.0
28/03:30am 12.9 13.7 12.4 97 0.3 CALM 0 0 0 0 - - 0.0
28/03:00am 14.0 15.2 13.7 98 0.2 CALM 0 0 0 0 - - 0.0
28/02:30am 13.6 14.6 13.1 97 0.3 CALM 0 0 0 0 - - 0.0
28/02:00am 14.2 15.4 13.9 98 0.2 CALM 0 0 0 0 - - 0.0
28/01:30am 14.1 15.2 13.6 97 0.3 CALM 0 0 0 0 - - 0.0
28/01:00am 14.2 15.3 13.6 96 0.3 CALM 0 0 0 0 - - 0.0
28/12:30am 14.5 15.7 13.9 96 0.3 CALM 0 0 0 0 - - 0.0
28/12:00am 14.9 16.3 14.3 96 0.3 CALM 0 0 0 0 - - 0.0
 
Date/Time
EST
Temp
°C
App
Temp
°C
Dew
Point
Rel
Hum
%
Delta-T
°C
Wind Press
QNH
hPa
Press
MSL
hPa
Rain
since 9 am
mm
Dir
 
Spd
km/h
Gust
km/h
Spd
kts
Gust
kts
27/11:30pm 15.2 16.7 14.7 97 0.3 CALM 0 0 0 0 - - 0.0
27/11:00pm 15.2 16.7 14.6 96 0.3 CALM 0 0 0 0 - - 0.0
27/10:30pm 15.3 16.8 14.7 96 0.3 CALM 0 0 0 0 - - 0.0
27/10:00pm 15.9 17.6 15.3 96 0.3 CALM 0 0 0 0 - - 0.0
27/09:30pm 15.9 17.6 15.1 95 0.5 CALM 0 0 0 0 - - 0.0
27/09:00pm 16.1 17.8 15.1 94 0.6 CALM 0 0 0 0 - - 0.0
27/08:30pm 16.6 18.4 15.6 94 0.6 CALM 0 2 0 1 - - 0.0
27/08:00pm 16.6 18.3 15.3 92 0.8 CALM 0 2 0 1 - - 0.0
27/07:30pm 17.2 19.2 15.9 92 0.8 CALM 0 2 0 1 - - 0.0
27/07:00pm 17.8 19.8 16.1 90 1.0 CALM 0 2 0 1 - - 0.0
27/06:30pm 18.1 20.1 15.9 87 1.3 CALM 0 4 0 2 - - 0.0
27/06:00pm 18.9 20.9 16.0 83 1.7 CALM 0 4 0 2 - - 0.0
27/05:30pm 19.6 20.5 16.1 80 2.1 NE 6 9 3 5 - - 0.0
27/05:00pm 20.3 20.9 15.9 76 2.6 NE 7 11 4 6 - - 0.0
27/04:30pm 21.2 20.7 16.0 72 3.1 NE 13 20 7 11 - - 0.0
27/04:00pm 21.6 21.8 15.7 69 3.5 NE 9 15 5 8 - - 0.0
27/03:30pm 21.8 21.0 15.2 66 3.9 NE 13 22 7 12 - - 0.0
27/03:00pm 21.9 21.2 15.3 66 3.9 NE 13 19 7 10 - - 0.0
27/02:30pm 21.9 21.1 15.0 65 4.1 ENE 13 22 7 12 - - 0.0
27/02:00pm 22.4 21.5 14.8 62 4.5 ENE 13 20 7 11 - - 0.0
27/01:30pm 23.3 22.9 15.1 60 4.9 NE 11 17 6 9 - - 0.0
27/01:00pm 23.4 22.5 14.9 59 5.1 NE 13 24 7 13 - - 0.0
27/12:30pm 23.6 23.4 14.6 57 5.3 NE 9 17 5 9 - - 0.0
27/12:00pm 23.2 22.7 13.7 55 5.5 NNE 9 20 5 11 - - 0.0
27/11:30am 23.7 23.0 13.3 52 6.0 NNE 9 17 5 9 - - 0.0
27/11:00am 22.9 22.8 13.4 55 5.5 N 6 9 3 5 - - 0.0
27/10:30am 21.8 23.1 15.2 66 3.9 SSE 2 4 1 2 - - 0.0
27/10:00am 20.2 20.9 14.6 70 3.3 SSW 4 6 2 3 - - 0.0
27/09:30am 18.9 19.2 14.4 75 2.6 S 6 7 3 4 - - 0.0
27/09:00am 18.7 20.5 15.6 82 1.8 CALM 0 0 0 0 - - 0.0
27/08:30am 16.2 17.5 14.2 88 1.1 CALM 0 0 0 0 - - 0.0
27/08:00am 15.3 16.8 14.7 96 0.3 CALM 0 0 0 0 - - 0.0
27/07:30am 14.0 15.2 13.7 98 0.2 CALM 0 0 0 0 - - 0.0
27/07:00am 12.5 13.2 12.2 98 0.2 CALM 0 0 0 0 - - 0.0
27/06:30am 12.0 12.5 11.7 98 0.2 CALM 0 0 0 0 - - 0.0
27/06:00am 11.9 12.3 11.4 97 0.3 CALM 0 0 0 0 - - 0.0
27/05:30am 12.4 13.0 11.9 97 0.3 CALM 0 0 0 0 - - 0.0
27/05:00am 12.5 13.1 11.9 96 0.3 CALM 0 0 0 0 - - 0.0
27/04:30am 13.0 13.8 12.5 97 0.3 CALM 0 0 0 0 - - 0.0
27/04:00am 13.4 14.3 12.8 96 0.3 CALM 0 0 0 0 - - 0.0
27/03:30am 13.8 14.8 13.3 97 0.3 CALM 0 0 0 0 - - 0.0
27/03:00am 14.2 15.4 13.7 97 0.3 CALM 0 0 0 0 - - 0.0
27/02:30am 13.9 14.9 13.3 96 0.3 CALM 0 0 0 0 - - 0.0
27/02:00am 14.1 15.2 13.5 96 0.3 CALM 0 0 0 0 - - 0.0
27/01:30am 14.4 15.5 13.6 95 0.4 CALM 0 0 0 0 - - 0.0
27/01:00am 15.1 16.5 14.3 95 0.5 CALM 0 0 0 0 - - 0.0
27/12:30am 15.6 17.2 14.8 95 0.5 CALM 0 0 0 0 - - 0.0
27/12:00am 15.9 17.5 14.9 94 0.6 CALM 0 0 0 0 - - 0.0
 
Date/Time
EST
Temp
°C
App
Temp
°C
Dew
Point
Rel
Hum
%
Delta-T
°C
Wind Press
QNH
hPa
Press
MSL
hPa
Rain
since 9 am
mm
Dir
 
Spd
km/h
Gust
km/h
Spd
kts
Gust
kts
26/11:30pm 16.2 17.9 15.2 94 0.6 CALM 0 0 0 0 - - 0.0
26/11:00pm 16.2 17.9 15.1 93 0.6 CALM 0 0 0 0 - - 0.0
26/10:30pm 16.7 18.5 15.6 93 0.6 CALM 0 0 0 0 - - 0.0
26/10:00pm 16.4 18.1 15.1 92 0.8 CALM 0 0 0 0 - - 0.0
26/09:30pm 16.7 18.5 15.6 93 0.6 CALM 0 0 0 0 - - 0.0
26/09:00pm 16.8 18.5 15.3 91 0.9 CALM 0 0 0 0 - - 0.0
26/08:30pm 17.1 18.8 15.3 89 1.0 CALM 0 0 0 0 - - 0.0
26/08:00pm 17.7 19.4 15.3 86 1.4 CALM 0 0 0 0 - - 0.0
26/07:30pm 18.5 20.3 15.6 83 1.7 CALM 0 0 0 0 - - 0.0
26/07:00pm 19.3 20.8 15.8 80 2.1 NNE 2 2 1 1 - - 0.0
26/06:30pm 20.2 21.4 15.8 76 2.6 NE 4 6 2 3 - - 0.0

Other Formats:

Comma delimited format used in spreadsheet applications
http://www.bom.gov.au/fwo/IDN60801/IDN60801.94782.axf

JavaScript Object Notation format (JSON) in row-major order
http://www.bom.gov.au/fwo/IDN60801/IDN60801.94782.json